createdAt,value
2018-05-01T12:31:14.953Z,24.57
2018-05-01T12:33:45.206Z,24.56
2018-05-01T12:38:00.825Z,24.59
2018-05-01T12:40:29.119Z,24.53
2018-05-01T12:42:57.434Z,23.79
2018-05-01T12:45:25.737Z,23.24
2018-05-01T12:47:54.056Z,22.93
2018-05-01T12:50:22.353Z,22.75
2018-05-01T12:52:50.672Z,22.69
2018-05-01T12:55:18.967Z,22.61
2018-05-01T12:57:47.331Z,22.51
2018-05-01T13:00:15.653Z,22.58
2018-05-01T13:02:43.951Z,22.55
2018-05-01T13:05:12.297Z,22.50
2018-05-01T13:07:40.833Z,22.36
2018-05-01T13:10:09.272Z,22.37
2018-05-01T13:12:37.576Z,22.36
2018-05-01T13:15:06.190Z,23.28
2018-05-01T13:17:34.485Z,23.93
2018-05-01T13:20:02.786Z,24.29
2018-05-01T13:22:31.105Z,24.54
2018-05-01T13:24:59.173Z,24.70
2018-05-01T13:27:27.514Z,24.55
2018-05-01T13:29:55.986Z,24.62
2018-05-01T13:32:24.385Z,24.62
2018-05-01T13:37:03.276Z,24.62
2018-05-01T13:39:32.629Z,24.60
2018-05-01T13:42:01.998Z,24.59
2018-05-01T13:44:32.132Z,24.58
2018-05-01T13:47:01.877Z,24.61
2018-05-01T13:49:32.017Z,24.65
2018-05-01T13:52:01.548Z,24.69
2018-05-01T13:54:31.319Z,24.73
2018-05-01T13:57:01.452Z,24.75
2018-05-01T13:59:31.627Z,24.80
2018-05-01T14:02:01.764Z,24.81
2018-05-01T14:08:13.787Z,24.68
2018-05-01T14:10:45.699Z,24.68
2018-05-01T14:13:17.979Z,24.67
2018-05-01T14:15:49.636Z,24.70
2018-05-01T14:18:21.528Z,24.82
2018-05-01T14:22:45.682Z,24.81
2018-05-01T14:25:17.227Z,24.89
2018-05-01T14:27:48.582Z,24.80
2018-05-01T14:30:19.800Z,24.70
2018-05-01T14:32:51.619Z,24.53
2018-05-01T14:39:20.882Z,24.70
2018-05-01T14:41:52.421Z,24.58
2018-05-01T14:44:24.093Z,24.98
2018-05-01T14:47:50.122Z,24.24
2018-05-01T14:50:54.606Z,23.20
2018-05-01T14:53:26.441Z,22.72
2018-05-01T14:55:59.308Z,22.78
2018-05-01T14:58:32.765Z,22.68
2018-05-01T15:01:06.417Z,22.54
2018-05-01T15:03:39.621Z,22.36
2018-05-01T15:06:13.660Z,22.29
2018-05-01T15:08:46.778Z,22.30
2018-05-01T15:11:20.259Z,22.37
2018-05-01T15:24:53.838Z,22.76
2018-05-01T15:27:21.184Z,22.74
2018-05-01T15:31:24.683Z,22.61
2018-05-01T15:33:51.192Z,22.57
2018-05-01T16:16:09.222Z,22.42
2018-05-01T16:30:32.303Z,22.33
2018-05-01T16:33:02.577Z,22.39
2018-05-01T16:35:30.043Z,22.53
2018-05-01T16:38:00.236Z,22.55
2018-05-01T16:40:28.196Z,22.67
2018-05-01T16:42:55.940Z,22.72
2018-05-01T16:45:23.069Z,22.75
2018-05-01T16:47:51.233Z,22.79
2018-05-01T16:52:58.949Z,22.68
2018-05-01T16:55:27.753Z,22.57
2018-05-01T16:57:56.532Z,22.69
2018-05-01T17:00:24.035Z,22.69
2018-05-01T17:02:51.574Z,22.65
2018-05-01T17:05:19.845Z,22.53
2018-05-01T17:07:47.561Z,22.54
2018-05-01T17:10:15.047Z,22.54
2018-05-01T17:12:42.576Z,22.61
2018-05-01T17:15:11.356Z,22.65
2018-05-01T17:17:40.016Z,22.69
2018-05-01T17:20:08.938Z,22.68
2018-05-01T17:22:36.056Z,22.72
2018-05-01T17:27:36.062Z,22.73
2018-05-01T17:30:04.866Z,22.76
2018-05-01T17:32:32.774Z,22.77
2018-05-01T17:36:04.633Z,22.74
2018-05-01T17:41:12.589Z,22.71
2018-05-01T17:43:41.214Z,22.74
2018-05-01T17:46:12.350Z,22.74
2018-05-01T17:48:40.883Z,22.74
2018-05-01T17:51:08.215Z,22.71
2018-05-01T17:53:36.576Z,22.71
2018-05-01T17:56:04.053Z,22.71
2018-05-01T17:58:32.588Z,22.72
2018-05-01T18:01:00.190Z,22.68
2018-05-01T18:03:32.595Z,22.60
2018-05-01T18:06:00.199Z,22.35
2018-05-01T18:08:28.596Z,22.22
2018-05-01T18:13:31.581Z,22.02
2018-05-01T18:15:59.250Z,21.99
2018-05-01T18:18:27.211Z,21.97
2018-05-01T18:20:55.073Z,21.86
2018-05-01T18:23:23.668Z,21.80
2018-05-01T18:25:54.223Z,21.77
2018-05-01T18:28:21.857Z,21.77
2018-05-01T18:30:49.415Z,21.75
2018-05-01T18:33:17.253Z,21.75
2018-05-01T18:35:45.007Z,21.70
2018-05-01T18:38:12.225Z,21.71
2018-05-01T18:40:40.628Z,21.60
2018-05-01T18:43:08.262Z,21.68
2018-05-01T18:45:36.230Z,21.62
2018-05-01T18:48:04.199Z,21.52
2018-05-01T18:50:40.391Z,21.49
2018-05-01T18:55:49.193Z,21.54
2018-05-01T19:00:28.827Z,21.58
2018-05-01T19:02:57.240Z,21.48
2018-05-01T19:05:25.833Z,21.57
2018-05-01T19:07:54.994Z,21.52
2018-05-01T19:10:23.007Z,21.49
2018-05-01T19:12:51.768Z,21.52
2018-05-01T19:15:22.673Z,21.47
2018-05-01T19:17:50.330Z,21.43
2018-05-01T19:20:18.259Z,21.49
2018-05-01T19:22:46.233Z,21.48
2018-05-01T19:25:15.052Z,21.37
2018-05-01T19:27:43.634Z,21.38
2018-05-01T19:30:11.374Z,21.40
2018-05-01T19:32:43.247Z,21.36
2018-05-01T19:35:11.832Z,21.32
2018-05-01T19:37:39.680Z,21.31
2018-05-01T19:40:09.065Z,21.35
2018-05-01T19:42:37.047Z,21.36
2018-05-01T19:45:08.326Z,21.33
2018-05-01T19:47:37.031Z,21.27
2018-05-01T19:51:05.306Z,21.30
2018-05-01T19:53:33.303Z,21.28
2018-05-01T19:56:02.562Z,21.26
2018-05-01T19:58:30.304Z,21.27
2018-05-01T20:00:59.221Z,21.21
2018-05-01T20:03:27.025Z,21.15
2018-05-01T20:05:56.416Z,21.06
2018-05-01T20:08:25.055Z,21.01
2018-05-01T20:10:53.019Z,21.03
2018-05-01T20:13:20.220Z,21.00
2018-05-01T20:15:47.977Z,20.89
2018-05-01T20:18:16.780Z,21.02
2018-05-01T20:20:44.480Z,20.93
2018-05-01T20:23:12.200Z,20.86
2018-05-01T20:25:39.950Z,20.78
2018-05-01T20:28:07.156Z,20.86
2018-05-01T20:30:34.792Z,20.85
2018-05-01T20:33:03.718Z,20.87
2018-05-01T20:35:32.060Z,20.88
2018-05-01T20:37:59.640Z,20.91
2018-05-01T20:40:27.212Z,20.79
2018-05-01T20:42:55.609Z,20.74
2018-05-01T20:45:23.067Z,20.75
2018-05-01T20:47:50.591Z,20.69
2018-05-01T20:50:18.975Z,20.51
2018-05-01T20:52:47.546Z,20.63
2018-05-01T20:55:15.234Z,20.62
2018-05-01T20:57:43.189Z,20.65
2018-05-01T21:00:10.949Z,20.74
2018-05-01T21:02:38.070Z,20.65
2018-05-01T21:05:05.563Z,20.55
2018-05-01T21:07:33.246Z,20.49
2018-05-01T21:10:00.989Z,20.47
2018-05-01T21:12:28.206Z,20.43
2018-05-01T21:14:55.956Z,20.87
2018-05-01T21:17:23.598Z,21.19
2018-05-01T21:22:18.413Z,21.58
2018-05-01T21:27:00.404Z,21.80
2018-05-01T21:29:27.287Z,21.90
2018-05-01T21:31:54.288Z,21.97
